THY8DU LTFM-LTBJ
Flight info
| Callsign | THY8DU |
|---|---|
| Flight time | 0h 46m |
| Altitude | 27000 |
| Route | IVGUS M19 OVZOK |
| Aircraft | B739/M-SDE2E3FGHIRWXY/LB1 |
Departure
| Time | 2026-02-21 22:30 |
|---|---|
| Airport | İstanbul Airport (LTFM) |
Arrival
| Time | 2026-02-21 23:16 |
|---|---|
| Airport | Adnan Menderes International Airport (LTBJ) |
| Time | Latitude | Longitude | Altitude | Speed | Heading |
|---|---|---|---|---|---|
| 2026-02-21 22:08 | 41.26791 | 28.73741 | 333 ft | 0 kts | 269° |
| 2026-02-21 22:17 | 41.26791 | 28.73744 | 333 ft | 2 kts | 269° |
| 2026-02-21 22:18 | 41.26792 | 28.73766 | 332 ft | 2 kts | 269° |
| 2026-02-21 22:18 | 41.26792 | 28.73788 | 332 ft | 2 kts | 270° |
| 2026-02-21 22:18 | 41.26790 | 28.73809 | 331 ft | 2 kts | 301° |
| 2026-02-21 22:18 | 41.26781 | 28.73821 | 328 ft | 1 kts | 359° |
| 2026-02-21 22:19 | 41.26775 | 28.73821 | 328 ft | 0 kts | 7° |
| 2026-02-21 22:23 | 41.26786 | 28.73823 | 329 ft | 3 kts | 7° |
| 2026-02-21 22:23 | 41.26820 | 28.73828 | 330 ft | 7 kts | 7° |
| 2026-02-21 22:23 | 41.26872 | 28.73849 | 333 ft | 9 kts | 22° |
| 2026-02-21 22:24 | 41.26915 | 28.73867 | 333 ft | 1 kts | 5° |
| 2026-02-21 22:24 | 41.26932 | 28.73867 | 333 ft | 4 kts | 356° |
| 2026-02-21 22:24 | 41.26954 | 28.73843 | 332 ft | 5 kts | 300° |
| 2026-02-21 22:24 | 41.26960 | 28.73783 | 332 ft | 8 kts | 269° |
| 2026-02-21 22:25 | 41.26960 | 28.73691 | 333 ft | 12 kts | 269° |
| 2026-02-21 22:25 | 41.26959 | 28.73569 | 333 ft | 15 kts | 269° |
| 2026-02-21 22:25 | 41.26957 | 28.73421 | 331 ft | 17 kts | 269° |
| 2026-02-21 22:25 | 41.26954 | 28.73262 | 333 ft | 16 kts | 269° |
| 2026-02-21 22:26 | 41.26952 | 28.73141 | 333 ft | 8 kts | 269° |
| 2026-02-21 22:26 | 41.26952 | 28.73124 | 333 ft | 3 kts | 269° |
| 2026-02-21 22:26 | 41.26951 | 28.73075 | 333 ft | 7 kts | 269° |
| 2026-02-21 22:26 | 41.26932 | 28.73002 | 328 ft | 10 kts | 218° |
| 2026-02-21 22:27 | 41.26855 | 28.72991 | 330 ft | 13 kts | 178° |
| 2026-02-21 22:27 | 41.26756 | 28.72994 | 331 ft | 11 kts | 179° |
| 2026-02-21 22:27 | 41.26736 | 28.72992 | 331 ft | 2 kts | 191° |
| 2026-02-21 22:27 | 41.26722 | 28.72975 | 333 ft | 4 kts | 239° |
| 2026-02-21 22:28 | 41.26720 | 28.72965 | 330 ft | 0 kts | 252° |
| 2026-02-21 22:28 | 41.26719 | 28.72959 | 330 ft | 2 kts | 257° |
| 2026-02-21 22:28 | 41.26716 | 28.72913 | 333 ft | 8 kts | 268° |
| 2026-02-21 22:28 | 41.26714 | 28.72813 | 333 ft | 10 kts | 268° |
| 2026-02-21 22:29 | 41.26726 | 28.72756 | 333 ft | 5 kts | 320° |
| 2026-02-21 22:29 | 41.26760 | 28.72754 | 330 ft | 6 kts | 10° |
| 2026-02-21 22:29 | 41.26873 | 28.72756 | 331 ft | 43 kts | 359° |
| 2026-02-21 22:29 | 41.27408 | 28.72748 | 330 ft | 110 kts | 360° |
| 2026-02-21 22:30 | 41.28348 | 28.72728 | 431 ft | 150 kts | 359° |
| 2026-02-21 22:30 | 41.29401 | 28.72671 | 1083 ft | 152 kts | 359° |
| 2026-02-21 22:30 | 41.30477 | 28.72639 | 1726 ft | 161 kts | 0° |
| 2026-02-21 22:30 | 41.31676 | 28.72630 | 2150 ft | 182 kts | 0° |
| 2026-02-21 22:31 | 41.33055 | 28.72622 | 2366 ft | 213 kts | 360° |
| 2026-02-21 22:31 | 41.34621 | 28.72605 | 2663 ft | 236 kts | 359° |
| 2026-02-21 22:31 | 41.36286 | 28.72325 | 3343 ft | 244 kts | 336° |
| 2026-02-21 22:31 | 41.37616 | 28.70907 | 4118 ft | 255 kts | 304° |
| 2026-02-21 22:32 | 41.38215 | 28.68638 | 4765 ft | 268 kts | 276° |
| 2026-02-21 22:32 | 41.38264 | 28.66159 | 5520 ft | 275 kts | 268° |
| 2026-02-21 22:32 | 41.38199 | 28.63606 | 6415 ft | 277 kts | 267° |
| 2026-02-21 22:32 | 41.38136 | 28.61026 | 7257 ft | 279 kts | 267° |
| 2026-02-21 22:33 | 41.37818 | 28.58502 | 8141 ft | 278 kts | 245° |
| 2026-02-21 22:33 | 41.36706 | 28.56433 | 8986 ft | 277 kts | 219° |
| 2026-02-21 22:33 | 41.35009 | 28.55248 | 9819 ft | 280 kts | 194° |
| 2026-02-21 22:33 | 41.33055 | 28.55011 | 10435 ft | 289 kts | 180° |
| 2026-02-21 22:34 | 41.30955 | 28.55077 | 10630 ft | 314 kts | 179° |
| 2026-02-21 22:34 | 41.28694 | 28.55170 | 10861 ft | 334 kts | 179° |
| 2026-02-21 22:34 | 41.26362 | 28.55246 | 11405 ft | 343 kts | 180° |
| 2026-02-21 22:34 | 41.23989 | 28.54916 | 12132 ft | 345 kts | 197° |
| 2026-02-21 22:35 | 41.21729 | 28.53826 | 12920 ft | 347 kts | 201° |
| 2026-02-21 22:35 | 41.19463 | 28.52652 | 13617 ft | 352 kts | 201° |
| 2026-02-21 22:35 | 41.17172 | 28.51468 | 14313 ft | 354 kts | 201° |
| 2026-02-21 22:35 | 41.14867 | 28.50293 | 15004 ft | 356 kts | 200° |
| 2026-02-21 22:36 | 41.12547 | 28.49127 | 15698 ft | 357 kts | 200° |
| 2026-02-21 22:36 | 41.10213 | 28.47964 | 16375 ft | 359 kts | 200° |
| 2026-02-21 22:36 | 41.07861 | 28.46797 | 17005 ft | 363 kts | 200° |
| 2026-02-21 22:36 | 41.05506 | 28.45685 | 17623 ft | 366 kts | 197° |
| 2026-02-21 22:37 | 41.03034 | 28.44849 | 18282 ft | 368 kts | 193° |
| 2026-02-21 22:37 | 41.00516 | 28.44137 | 18834 ft | 371 kts | 192° |
| 2026-02-21 22:37 | 40.97982 | 28.43416 | 19390 ft | 374 kts | 193° |
| 2026-02-21 22:37 | 40.95441 | 28.42652 | 19954 ft | 375 kts | 193° |
| 2026-02-21 22:38 | 40.92892 | 28.41864 | 20531 ft | 377 kts | 194° |
| 2026-02-21 22:38 | 40.90431 | 28.40662 | 21043 ft | 380 kts | 210° |
| 2026-02-21 22:38 | 40.88374 | 28.38459 | 21595 ft | 385 kts | 226° |
| 2026-02-21 22:38 | 40.86849 | 28.35591 | 22140 ft | 390 kts | 240° |
| 2026-02-21 22:39 | 40.85974 | 28.32174 | 22687 ft | 397 kts | 255° |
| 2026-02-21 22:39 | 40.85446 | 28.28574 | 23216 ft | 401 kts | 256° |
| 2026-02-21 22:39 | 40.84961 | 28.24928 | 23673 ft | 405 kts | 256° |
| 2026-02-21 22:39 | 40.84450 | 28.21266 | 24107 ft | 406 kts | 255° |
| 2026-02-21 22:40 | 40.83910 | 28.17599 | 24583 ft | 407 kts | 255° |
| 2026-02-21 22:40 | 40.83355 | 28.13924 | 25027 ft | 409 kts | 255° |
| 2026-02-21 22:40 | 40.82793 | 28.10229 | 25437 ft | 411 kts | 255° |
| 2026-02-21 22:40 | 40.82238 | 28.06575 | 25921 ft | 411 kts | 255° |
| 2026-02-21 22:41 | 40.81679 | 28.02893 | 26555 ft | 408 kts | 254° |
| 2026-02-21 22:41 | 40.81123 | 27.99228 | 27016 ft | 408 kts | 254° |
| 2026-02-21 22:41 | 40.80563 | 27.95554 | 27007 ft | 408 kts | 254° |
| 2026-02-21 22:41 | 40.80005 | 27.91895 | 27016 ft | 406 kts | 254° |
| 2026-02-21 22:42 | 40.79462 | 27.88246 | 27026 ft | 406 kts | 257° |
| 2026-02-21 22:42 | 40.79386 | 27.80718 | 27030 ft | 411 kts | 263° |
| 2026-02-21 22:42 | 40.78871 | 27.77088 | 27033 ft | 399 kts | 244° |
| 2026-02-21 22:43 | 40.77526 | 27.73949 | 27043 ft | 391 kts | 229° |
| 2026-02-21 22:43 | 40.75678 | 27.71418 | 27028 ft | 388 kts | 216° |
| 2026-02-21 22:43 | 40.73405 | 27.69520 | 27045 ft | 387 kts | 208° |
| 2026-02-21 22:43 | 40.71032 | 27.67838 | 27028 ft | 387 kts | 207° |
| 2026-02-21 22:44 | 40.68644 | 27.66186 | 27031 ft | 388 kts | 207° |
| 2026-02-21 22:44 | 40.66259 | 27.64519 | 27029 ft | 389 kts | 207° |
| 2026-02-21 22:44 | 40.63879 | 27.62825 | 27029 ft | 389 kts | 208° |
| 2026-02-21 22:44 | 40.61506 | 27.61119 | 27034 ft | 389 kts | 208° |
| 2026-02-21 22:45 | 40.59126 | 27.59418 | 27028 ft | 389 kts | 205° |
| 2026-02-21 22:45 | 40.56602 | 27.58287 | 27036 ft | 390 kts | 192° |
| 2026-02-21 22:45 | 40.53897 | 27.58040 | 27034 ft | 392 kts | 179° |
| 2026-02-21 22:45 | 40.51174 | 27.58342 | 27022 ft | 393 kts | 177° |
| 2026-02-21 22:46 | 40.48450 | 27.58726 | 27027 ft | 393 kts | 176° |
| 2026-02-21 22:46 | 40.45734 | 27.59108 | 27027 ft | 393 kts | 177° |
| 2026-02-21 22:46 | 40.43014 | 27.59464 | 27025 ft | 393 kts | 177° |
| 2026-02-21 22:46 | 40.40296 | 27.59796 | 27019 ft | 392 kts | 178° |
| 2026-02-21 22:47 | 40.37584 | 27.60119 | 27023 ft | 391 kts | 178° |
| 2026-02-21 22:47 | 40.34872 | 27.60271 | 27017 ft | 389 kts | 184° |
| 2026-02-21 22:47 | 40.32229 | 27.59911 | 27028 ft | 386 kts | 190° |
| 2026-02-21 22:47 | 40.29575 | 27.59376 | 27016 ft | 386 kts | 190° |
| 2026-02-21 22:48 | 40.26925 | 27.58843 | 27020 ft | 385 kts | 190° |
| 2026-02-21 22:48 | 40.24274 | 27.58317 | 27027 ft | 385 kts | 190° |
| 2026-02-21 22:48 | 40.21628 | 27.57799 | 27026 ft | 385 kts | 190° |
| 2026-02-21 22:48 | 40.18981 | 27.57285 | 27016 ft | 384 kts | 190° |
| 2026-02-21 22:49 | 40.16337 | 27.56776 | 27008 ft | 384 kts | 190° |
| 2026-02-21 22:49 | 40.13701 | 27.56270 | 27027 ft | 383 kts | 190° |
| 2026-02-21 22:49 | 40.11098 | 27.55771 | 27013 ft | 383 kts | 190° |
| 2026-02-21 22:49 | 40.08464 | 27.55267 | 27021 ft | 382 kts | 190° |
| 2026-02-21 22:50 | 40.05834 | 27.54764 | 27016 ft | 382 kts | 190° |
| 2026-02-21 22:50 | 40.03202 | 27.54261 | 27017 ft | 382 kts | 190° |
| 2026-02-21 22:50 | 40.00574 | 27.53759 | 27013 ft | 382 kts | 190° |
| 2026-02-21 22:50 | 39.97952 | 27.53259 | 27006 ft | 381 kts | 190° |
| 2026-02-21 22:51 | 39.92710 | 27.52260 | 27015 ft | 380 kts | 190° |
| 2026-02-21 22:51 | 39.90125 | 27.51769 | 26999 ft | 369 kts | 190° |
| 2026-02-21 22:51 | 39.87637 | 27.51298 | 26992 ft | 355 kts | 190° |
| 2026-02-21 22:52 | 39.85240 | 27.50843 | 27010 ft | 351 kts | 191° |
| 2026-02-21 22:52 | 39.82821 | 27.50382 | 27010 ft | 352 kts | 190° |
| 2026-02-21 22:52 | 39.80388 | 27.49918 | 26697 ft | 355 kts | 190° |
| 2026-02-21 22:52 | 39.77966 | 27.49459 | 26335 ft | 351 kts | 191° |
| 2026-02-21 22:53 | 39.75572 | 27.49005 | 25962 ft | 344 kts | 191° |
| 2026-02-21 22:53 | 39.73215 | 27.48559 | 25531 ft | 340 kts | 191° |
| 2026-02-21 22:53 | 39.70888 | 27.48119 | 25099 ft | 336 kts | 191° |
| 2026-02-21 22:53 | 39.68581 | 27.47685 | 24650 ft | 333 kts | 191° |
| 2026-02-21 22:54 | 39.66330 | 27.47265 | 24232 ft | 331 kts | 190° |
| 2026-02-21 22:54 | 39.64060 | 27.46842 | 23805 ft | 328 kts | 191° |
| 2026-02-21 22:54 | 39.61806 | 27.46422 | 23345 ft | 326 kts | 190° |
| 2026-02-21 22:54 | 39.59572 | 27.46005 | 22904 ft | 322 kts | 190° |
| 2026-02-21 22:55 | 39.57365 | 27.45595 | 22493 ft | 318 kts | 191° |
| 2026-02-21 22:55 | 39.55181 | 27.45188 | 22089 ft | 316 kts | 190° |
| 2026-02-21 22:55 | 39.53007 | 27.44782 | 21686 ft | 316 kts | 190° |
| 2026-02-21 22:55 | 39.50808 | 27.44372 | 21275 ft | 324 kts | 190° |
| 2026-02-21 22:56 | 39.48578 | 27.43955 | 20862 ft | 333 kts | 190° |
| 2026-02-21 22:56 | 39.46275 | 27.43527 | 20428 ft | 333 kts | 190° |
| 2026-02-21 22:56 | 39.43994 | 27.43105 | 19990 ft | 329 kts | 190° |
| 2026-02-21 22:56 | 39.41741 | 27.42688 | 19564 ft | 326 kts | 190° |
| 2026-02-21 22:57 | 39.39505 | 27.42273 | 19138 ft | 323 kts | 190° |
| 2026-02-21 22:57 | 39.37289 | 27.41847 | 18726 ft | 320 kts | 192° |
| 2026-02-21 22:57 | 39.35141 | 27.41191 | 18368 ft | 315 kts | 197° |
| 2026-02-21 22:57 | 39.33039 | 27.40394 | 17893 ft | 314 kts | 198° |
| 2026-02-21 22:58 | 39.30991 | 27.39583 | 17483 ft | 310 kts | 198° |
| 2026-02-21 22:58 | 39.28935 | 27.38773 | 17069 ft | 308 kts | 198° |
| 2026-02-21 22:58 | 39.26895 | 27.37979 | 16654 ft | 305 kts | 198° |
| 2026-02-21 22:58 | 39.24868 | 27.37202 | 16262 ft | 303 kts | 197° |
| 2026-02-21 22:59 | 39.22855 | 27.36437 | 15874 ft | 300 kts | 197° |
| 2026-02-21 22:59 | 39.20857 | 27.35683 | 15470 ft | 299 kts | 197° |
| 2026-02-21 22:59 | 39.18870 | 27.34937 | 15091 ft | 296 kts | 197° |
| 2026-02-21 22:59 | 39.16894 | 27.34196 | 14691 ft | 295 kts | 197° |
| 2026-02-21 23:00 | 39.14929 | 27.33462 | 14305 ft | 293 kts | 197° |
| 2026-02-21 23:00 | 39.12973 | 27.32732 | 13917 ft | 292 kts | 197° |
| 2026-02-21 23:00 | 39.11052 | 27.32016 | 13516 ft | 291 kts | 197° |
| 2026-02-21 23:00 | 39.09118 | 27.31295 | 13130 ft | 288 kts | 197° |
| 2026-02-21 23:01 | 39.07199 | 27.30581 | 12760 ft | 287 kts | 197° |
| 2026-02-21 23:01 | 39.05278 | 27.29866 | 12373 ft | 289 kts | 197° |
| 2026-02-21 23:01 | 39.03330 | 27.29142 | 11986 ft | 295 kts | 197° |
| 2026-02-21 23:01 | 39.01334 | 27.28400 | 11578 ft | 301 kts | 197° |
| 2026-02-21 23:02 | 38.99323 | 27.27653 | 11163 ft | 300 kts | 197° |
| 2026-02-21 23:02 | 38.97324 | 27.26911 | 10785 ft | 297 kts | 197° |
| 2026-02-21 23:02 | 38.96031 | 27.26433 | 10739 ft | 288 kts | 197° |
| 2026-02-21 23:02 | 38.93539 | 27.25508 | 10559 ft | 274 kts | 197° |
| 2026-02-21 23:03 | 38.91738 | 27.24842 | 10451 ft | 264 kts | 197° |
| 2026-02-21 23:03 | 38.90007 | 27.24201 | 10341 ft | 254 kts | 197° |
| 2026-02-21 23:03 | 38.88340 | 27.23585 | 10238 ft | 244 kts | 197° |
| 2026-02-21 23:03 | 38.86771 | 27.22842 | 10082 ft | 236 kts | 208° |
| 2026-02-21 23:04 | 38.85363 | 27.21823 | 9880 ft | 231 kts | 211° |
| 2026-02-21 23:04 | 38.84455 | 27.21120 | 9719 ft | 229 kts | 212° |
| 2026-02-21 23:04 | 38.83093 | 27.20059 | 9452 ft | 229 kts | 211° |
| 2026-02-21 23:04 | 38.81719 | 27.18997 | 9168 ft | 233 kts | 211° |
| 2026-02-21 23:05 | 38.79840 | 27.17556 | 8810 ft | 242 kts | 211° |
| 2026-02-21 23:05 | 38.78389 | 27.16453 | 8519 ft | 242 kts | 211° |
| 2026-02-21 23:05 | 38.76938 | 27.15354 | 8231 ft | 241 kts | 211° |
| 2026-02-21 23:05 | 38.75981 | 27.14632 | 8048 ft | 241 kts | 210° |
| 2026-02-21 23:06 | 38.74531 | 27.13539 | 7753 ft | 242 kts | 210° |
| 2026-02-21 23:06 | 38.73085 | 27.12452 | 7473 ft | 241 kts | 210° |
| 2026-02-21 23:06 | 38.71641 | 27.11368 | 7186 ft | 240 kts | 210° |
| 2026-02-21 23:06 | 38.70206 | 27.10291 | 6931 ft | 240 kts | 210° |
| 2026-02-21 23:07 | 38.68763 | 27.09209 | 6632 ft | 240 kts | 210° |
| 2026-02-21 23:07 | 38.66869 | 27.07792 | 6444 ft | 234 kts | 210° |
| 2026-02-21 23:07 | 38.65927 | 27.07087 | 6353 ft | 231 kts | 210° |
| 2026-02-21 23:07 | 38.64578 | 27.06082 | 6238 ft | 224 kts | 207° |
| 2026-02-21 23:08 | 38.63113 | 27.05577 | 6054 ft | 219 kts | 181° |
| 2026-02-21 23:08 | 38.61620 | 27.05830 | 5871 ft | 215 kts | 169° |
| 2026-02-21 23:08 | 38.60200 | 27.06274 | 5661 ft | 203 kts | 168° |
| 2026-02-21 23:08 | 38.58876 | 27.06703 | 5425 ft | 190 kts | 168° |
| 2026-02-21 23:09 | 38.57626 | 27.07103 | 5216 ft | 181 kts | 168° |
| 2026-02-21 23:09 | 38.56431 | 27.07475 | 5053 ft | 172 kts | 169° |
| 2026-02-21 23:09 | 38.55304 | 27.07821 | 4874 ft | 162 kts | 169° |
| 2026-02-21 23:09 | 38.54235 | 27.08146 | 4700 ft | 154 kts | 168° |
| 2026-02-21 23:10 | 38.53214 | 27.08456 | 4613 ft | 149 kts | 169° |
| 2026-02-21 23:10 | 38.52238 | 27.08750 | 4377 ft | 141 kts | 169° |
| 2026-02-21 23:10 | 38.51307 | 27.09031 | 4264 ft | 135 kts | 169° |
| 2026-02-21 23:10 | 38.50407 | 27.09301 | 4115 ft | 131 kts | 169° |
| 2026-02-21 23:11 | 38.49519 | 27.09569 | 3980 ft | 131 kts | 169° |
| 2026-02-21 23:11 | 38.48633 | 27.09837 | 3835 ft | 130 kts | 169° |
| 2026-02-21 23:11 | 38.47759 | 27.10101 | 3707 ft | 129 kts | 169° |
| 2026-02-21 23:11 | 38.46891 | 27.10363 | 3564 ft | 128 kts | 169° |
| 2026-02-21 23:12 | 38.46037 | 27.10621 | 3569 ft | 127 kts | 169° |
| 2026-02-21 23:12 | 38.45165 | 27.10884 | 3420 ft | 131 kts | 168° |
| 2026-02-21 23:12 | 38.44281 | 27.11152 | 3238 ft | 129 kts | 168° |
| 2026-02-21 23:12 | 38.43419 | 27.11412 | 3053 ft | 126 kts | 168° |
| 2026-02-21 23:13 | 38.42560 | 27.11671 | 2889 ft | 128 kts | 167° |
| 2026-02-21 23:13 | 38.41691 | 27.11934 | 2718 ft | 129 kts | 167° |
| 2026-02-21 23:13 | 38.40824 | 27.12196 | 2511 ft | 127 kts | 166° |
| 2026-02-21 23:13 | 38.39956 | 27.12460 | 2349 ft | 132 kts | 167° |
| 2026-02-21 23:14 | 38.39060 | 27.12730 | 2173 ft | 133 kts | 167° |
| 2026-02-21 23:14 | 38.38166 | 27.12999 | 1988 ft | 135 kts | 166° |
| 2026-02-21 23:14 | 38.37242 | 27.13279 | 1790 ft | 137 kts | 166° |
| 2026-02-21 23:14 | 38.36318 | 27.13558 | 1603 ft | 136 kts | 166° |
| 2026-02-21 23:15 | 38.35389 | 27.13840 | 1407 ft | 137 kts | 166° |
| 2026-02-21 23:15 | 38.34468 | 27.14118 | 1209 ft | 136 kts | 166° |
| 2026-02-21 23:15 | 38.33564 | 27.14390 | 1058 ft | 134 kts | 165° |
| 2026-02-21 23:15 | 38.32630 | 27.14674 | 886 ft | 142 kts | 167° |
| 2026-02-21 23:16 | 38.31647 | 27.14970 | 676 ft | 146 kts | 167° |
| 2026-02-21 23:16 | 38.30677 | 27.15268 | 460 ft | 145 kts | 166° |
| 2026-02-21 23:16 | 38.29765 | 27.15546 | 404 ft | 112 kts | 167° |
| 2026-02-21 23:16 | 38.29217 | 27.15700 | 389 ft | 49 kts | 168° |
| 2026-02-21 23:17 | 38.28950 | 27.15778 | 390 ft | 28 kts | 170° |
| 2026-02-21 23:17 | 38.28822 | 27.15759 | 389 ft | 0 kts | 192° |
| 2026-02-21 23:17 | 38.28814 | 27.15757 | 389 ft | 4 kts | 192° |
| 2026-02-21 23:17 | 38.28767 | 27.15743 | 388 ft | 10 kts | 194° |
| 2026-02-21 23:18 | 38.28676 | 27.15710 | 387 ft | 17 kts | 196° |
| 2026-02-21 23:18 | 38.28596 | 27.15664 | 386 ft | 15 kts | 228° |
| 2026-02-21 23:18 | 38.28580 | 27.15624 | 386 ft | 2 kts | 250° |
| 2026-02-21 23:18 | 38.28570 | 27.15580 | 386 ft | 8 kts | 256° |
| 2026-02-21 23:19 | 38.28553 | 27.15496 | 385 ft | 7 kts | 256° |
| 2026-02-21 23:19 | 38.28549 | 27.15476 | 386 ft | 0 kts | 256° |
| 2026-02-21 23:19 | 38.28549 | 27.15475 | 386 ft | 1 kts | 257° |
| 2026-02-21 23:20 | 38.28554 | 27.15447 | 386 ft | 5 kts | 302° |
| 2026-02-21 23:20 | 38.28593 | 27.15428 | 386 ft | 8 kts | 352° |
| 2026-02-21 23:20 | 38.28659 | 27.15412 | 388 ft | 11 kts | 341° |
| 2026-02-21 23:20 | 38.28739 | 27.15385 | 389 ft | 14 kts | 332° |
| 2026-02-21 23:21 | 38.28837 | 27.15362 | 390 ft | 16 kts | 354° |
| 2026-02-21 23:21 | 38.28894 | 27.15346 | 391 ft | 1 kts | 346° |
| 2026-02-21 23:21 | 38.28902 | 27.15344 | 392 ft | 0 kts | 347° |
| 2026-02-21 23:21 | 38.28908 | 27.15344 | 392 ft | 2 kts | 3° |
| 2026-02-21 23:22 | 38.28934 | 27.15342 | 392 ft | 5 kts | 345° |
| 2026-02-21 23:22 | 38.28982 | 27.15319 | 393 ft | 9 kts | 341° |
| 2026-02-21 23:22 | 38.29007 | 27.15263 | 393 ft | 9 kts | 278° |
| 2026-02-21 23:22 | 38.29023 | 27.15236 | 394 ft | 4 kts | 329° |
| 2026-02-21 23:23 | 38.29065 | 27.15216 | 393 ft | 9 kts | 345° |
| 2026-02-21 23:23 | 38.29138 | 27.15193 | 395 ft | 12 kts | 346° |
| 2026-02-21 23:23 | 38.29200 | 27.15163 | 395 ft | 5 kts | 307° |
| 2026-02-21 23:23 | 38.29201 | 27.15113 | 395 ft | 8 kts | 260° |
| 2026-02-21 23:24 | 38.29197 | 27.15089 | 394 ft | 2 kts | 258° |
| 2026-02-21 23:24 | 38.29196 | 27.15081 | 395 ft | 0 kts | 258° |